sensor_id;sensor_type;location;lat;lon;timestamp;P1;durP1;ratioP1;P2;durP2;ratioP2
29242;SDS011;21110;48.036;15.780;2023-01-28T00:01:54;18.80;;;14.48;;
29242;SDS011;21110;48.036;15.780;2023-01-28T00:04:19;18.88;;;14.88;;
29242;SDS011;21110;48.036;15.780;2023-01-28T00:06:45;18.83;;;15.25;;
29242;SDS011;21110;48.036;15.780;2023-01-28T00:09:11;19.20;;;14.77;;
29242;SDS011;21110;48.036;15.780;2023-01-28T00:11:37;18.67;;;14.98;;
29242;SDS011;21110;48.036;15.780;2023-01-28T00:14:02;19.75;;;15.15;;
29242;SDS011;21110;48.036;15.780;2023-01-28T00:16:31;20.80;;;15.15;;
29242;SDS011;21110;48.036;15.780;2023-01-28T00:18:56;20.02;;;15.18;;
29242;SDS011;21110;48.036;15.780;2023-01-28T00:21:22;19.80;;;14.77;;
29242;SDS011;21110;48.036;15.780;2023-01-28T00:23:51;19.25;;;14.40;;
29242;SDS011;21110;48.036;15.780;2023-01-28T00:26:18;20.30;;;15.10;;
29242;SDS011;21110;48.036;15.780;2023-01-28T00:28:45;18.85;;;14.93;;
29242;SDS011;21110;48.036;15.780;2023-01-28T00:31:16;19.33;;;14.82;;
29242;SDS011;21110;48.036;15.780;2023-01-28T00:36:09;19.17;;;15.18;;
29242;SDS011;21110;48.036;15.780;2023-01-28T00:38:35;19.23;;;15.73;;
29242;SDS011;21110;48.036;15.780;2023-01-28T00:41:08;19.95;;;15.05;;
29242;SDS011;21110;48.036;15.780;2023-01-28T00:43:38;19.10;;;15.20;;
29242;SDS011;21110;48.036;15.780;2023-01-28T00:46:05;19.33;;;15.27;;
29242;SDS011;21110;48.036;15.780;2023-01-28T00:48:32;19.33;;;14.75;;
29242;SDS011;21110;48.036;15.780;2023-01-28T00:50:58;19.67;;;14.55;;
29242;SDS011;21110;48.036;15.780;2023-01-28T00:53:24;25.02;;;14.82;;
29242;SDS011;21110;48.036;15.780;2023-01-28T00:55:50;22.88;;;14.98;;
29242;SDS011;21110;48.036;15.780;2023-01-28T00:58:16;20.27;;;15.35;;
29242;SDS011;21110;48.036;15.780;2023-01-28T01:00:42;19.15;;;15.43;;
29242;SDS011;21110;48.036;15.780;2023-01-28T01:03:08;20.65;;;15.65;;
29242;SDS011;21110;48.036;15.780;2023-01-28T01:05:33;20.33;;;14.85;;
29242;SDS011;21110;48.036;15.780;2023-01-28T01:07:59;19.35;;;15.02;;
29242;SDS011;21110;48.036;15.780;2023-01-28T01:10:25;20.52;;;15.35;;
29242;SDS011;21110;48.036;15.780;2023-01-28T01:12:50;22.35;;;14.98;;
29242;SDS011;21110;48.036;15.780;2023-01-28T01:15:17;20.77;;;15.70;;
29242;SDS011;21110;48.036;15.780;2023-01-28T01:17:44;21.63;;;16.27;;
29242;SDS011;21110;48.036;15.780;2023-01-28T01:20:16;21.27;;;15.95;;
29242;SDS011;21110;48.036;15.780;2023-01-28T01:22:44;22.58;;;15.77;;
29242;SDS011;21110;48.036;15.780;2023-01-28T01:25:10;20.55;;;15.00;;
29242;SDS011;21110;48.036;15.780;2023-01-28T01:27:38;21.15;;;15.25;;
29242;SDS011;21110;48.036;15.780;2023-01-28T01:30:04;19.90;;;15.48;;
29242;SDS011;21110;48.036;15.780;2023-01-28T01:32:31;21.15;;;16.50;;
29242;SDS011;21110;48.036;15.780;2023-01-28T01:34:58;19.95;;;15.65;;
29242;SDS011;21110;48.036;15.780;2023-01-28T01:37:24;20.15;;;15.80;;
29242;SDS011;21110;48.036;15.780;2023-01-28T01:39:50;20.73;;;15.10;;
29242;SDS011;21110;48.036;15.780;2023-01-28T01:42:16;22.23;;;15.18;;
29242;SDS011;21110;48.036;15.780;2023-01-28T01:47:13;20.38;;;15.13;;
29242;SDS011;21110;48.036;15.780;2023-01-28T01:49:40;19.27;;;15.60;;
29242;SDS011;21110;48.036;15.780;2023-01-28T01:52:08;20.25;;;15.65;;
29242;SDS011;21110;48.036;15.780;2023-01-28T01:54:37;19.38;;;14.77;;
29242;SDS011;21110;48.036;15.780;2023-01-28T01:57:05;20.25;;;15.07;;
29242;SDS011;21110;48.036;15.780;2023-01-28T01:59:34;21.70;;;15.88;;
29242;SDS011;21110;48.036;15.780;2023-01-28T02:02:01;20.02;;;15.35;;
29242;SDS011;21110;48.036;15.780;2023-01-28T02:04:33;20.38;;;15.30;;
29242;SDS011;21110;48.036;15.780;2023-01-28T02:07:02;19.92;;;15.00;;
29242;SDS011;21110;48.036;15.780;2023-01-28T02:09:30;20.95;;;15.52;;
29242;SDS011;21110;48.036;15.780;2023-01-28T02:11:59;20.70;;;15.32;;
29242;SDS011;21110;48.036;15.780;2023-01-28T02:14:41;20.15;;;15.13;;
29242;SDS011;21110;48.036;15.780;2023-01-28T02:17:10;20.45;;;15.98;;
29242;SDS011;21110;48.036;15.780;2023-01-28T02:19:37;20.55;;;14.95;;
29242;SDS011;21110;48.036;15.780;2023-01-28T02:22:40;20.58;;;15.27;;
29242;SDS011;21110;48.036;15.780;2023-01-28T02:25:22;21.00;;;15.18;;
29242;SDS011;21110;48.036;15.780;2023-01-28T02:35:53;25.73;;;15.88;;
29242;SDS011;21110;48.036;15.780;2023-01-28T02:38:22;20.85;;;14.18;;
29242;SDS011;21110;48.036;15.780;2023-01-28T02:41:07;21.27;;;15.07;;
29242;SDS011;21110;48.036;15.780;2023-01-28T02:43:43;20.48;;;15.75;;
29242;SDS011;21110;48.036;15.780;2023-01-28T02:49:13;22.45;;;16.00;;
29242;SDS011;21110;48.036;15.780;2023-01-28T03:00:55;20.65;;;15.00;;
29242;SDS011;21110;48.036;15.780;2023-01-28T03:03:55;21.70;;;16.13;;
29242;SDS011;21110;48.036;15.780;2023-01-28T03:06:30;22.02;;;16.23;;
29242;SDS011;21110;48.036;15.780;2023-01-28T03:09:01;20.63;;;14.88;;
29242;SDS011;21110;48.036;15.780;2023-01-28T03:18:11;18.05;;;14.48;;
29242;SDS011;21110;48.036;15.780;2023-01-28T03:23:57;21.73;;;16.23;;
29242;SDS011;21110;48.036;15.780;2023-01-28T03:30:10;24.83;;;16.35;;
29242;SDS011;21110;48.036;15.780;2023-01-28T03:32:58;22.90;;;15.80;;
29242;SDS011;21110;48.036;15.780;2023-01-28T03:35:42;22.23;;;15.95;;
29242;SDS011;21110;48.036;15.780;2023-01-28T03:38:29;19.88;;;15.50;;
29242;SDS011;21110;48.036;15.780;2023-01-28T03:41:01;21.23;;;16.25;;
29242;SDS011;21110;48.036;15.780;2023-01-28T03:43:28;19.90;;;15.52;;
29242;SDS011;21110;48.036;15.780;2023-01-28T03:45:55;20.42;;;15.35;;
29242;SDS011;21110;48.036;15.780;2023-01-28T03:48:21;20.60;;;15.88;;
29242;SDS011;21110;48.036;15.780;2023-01-28T03:50:49;19.23;;;14.98;;
29242;SDS011;21110;48.036;15.780;2023-01-28T03:53:15;19.73;;;15.00;;
29242;SDS011;21110;48.036;15.780;2023-01-28T03:55:42;23.35;;;15.85;;
29242;SDS011;21110;48.036;15.780;2023-01-28T03:58:09;20.92;;;15.05;;
29242;SDS011;21110;48.036;15.780;2023-01-28T04:00:35;19.20;;;14.57;;
29242;SDS011;21110;48.036;15.780;2023-01-28T04:03:02;22.67;;;16.38;;
29242;SDS011;21110;48.036;15.780;2023-01-28T04:05:28;19.42;;;15.35;;
29242;SDS011;21110;48.036;15.780;2023-01-28T04:07:54;20.58;;;15.48;;
29242;SDS011;21110;48.036;15.780;2023-01-28T04:10:20;19.90;;;15.75;;
29242;SDS011;21110;48.036;15.780;2023-01-28T04:12:46;21.20;;;15.50;;
29242;SDS011;21110;48.036;15.780;2023-01-28T04:15:14;21.73;;;15.73;;
29242;SDS011;21110;48.036;15.780;2023-01-28T04:17:46;20.85;;;15.40;;
29242;SDS011;21110;48.036;15.780;2023-01-28T04:20:13;22.13;;;15.75;;
29242;SDS011;21110;48.036;15.780;2023-01-28T04:22:39;20.10;;;15.30;;
29242;SDS011;21110;48.036;15.780;2023-01-28T04:25:05;20.35;;;15.55;;
29242;SDS011;21110;48.036;15.780;2023-01-28T04:27:31;19.80;;;15.50;;
29242;SDS011;21110;48.036;15.780;2023-01-28T04:29:57;21.42;;;15.65;;
29242;SDS011;21110;48.036;15.780;2023-01-28T04:32:23;20.65;;;14.98;;
29242;SDS011;21110;48.036;15.780;2023-01-28T04:34:48;21.10;;;15.45;;
29242;SDS011;21110;48.036;15.780;2023-01-28T04:37:14;19.63;;;14.88;;
29242;SDS011;21110;48.036;15.780;2023-01-28T04:39:39;20.08;;;15.15;;
29242;SDS011;21110;48.036;15.780;2023-01-28T04:42:05;20.17;;;14.85;;
29242;SDS011;21110;48.036;15.780;2023-01-28T04:44:31;19.60;;;14.90;;
29242;SDS011;21110;48.036;15.780;2023-01-28T04:46:56;19.17;;;15.55;;
29242;SDS011;21110;48.036;15.780;2023-01-28T04:49:22;20.45;;;15.00;;
29242;SDS011;21110;48.036;15.780;2023-01-28T04:51:47;19.25;;;14.73;;
29242;SDS011;21110;48.036;15.780;2023-01-28T04:54:13;20.63;;;15.27;;
29242;SDS011;21110;48.036;15.780;2023-01-28T04:56:39;19.17;;;14.38;;
29242;SDS011;21110;48.036;15.780;2023-01-28T04:59:04;18.52;;;14.38;;
29242;SDS011;21110;48.036;15.780;2023-01-28T05:01:30;20.73;;;14.68;;
29242;SDS011;21110;48.036;15.780;2023-01-28T05:03:55;19.17;;;14.63;;
29242;SDS011;21110;48.036;15.780;2023-01-28T05:06:21;21.80;;;15.07;;
29242;SDS011;21110;48.036;15.780;2023-01-28T05:08:47;19.20;;;14.48;;
29242;SDS011;21110;48.036;15.780;2023-01-28T05:11:13;18.13;;;14.48;;
29242;SDS011;21110;48.036;15.780;2023-01-28T05:13:38;19.38;;;14.27;;
29242;SDS011;21110;48.036;15.780;2023-01-28T05:16:04;20.73;;;14.75;;
29242;SDS011;21110;48.036;15.780;2023-01-28T05:18:30;18.25;;;14.52;;
29242;SDS011;21110;48.036;15.780;2023-01-28T05:20:56;21.67;;;14.60;;
29242;SDS011;21110;48.036;15.780;2023-01-28T05:23:22;22.20;;;14.98;;
29242;SDS011;21110;48.036;15.780;2023-01-28T05:25:48;19.65;;;14.40;;
29242;SDS011;21110;48.036;15.780;2023-01-28T05:28:14;18.88;;;14.65;;
29242;SDS011;21110;48.036;15.780;2023-01-28T05:30:40;21.00;;;15.10;;
29242;SDS011;21110;48.036;15.780;2023-01-28T05:33:06;20.50;;;14.57;;
29242;SDS011;21110;48.036;15.780;2023-01-28T05:35:31;36.47;;;14.40;;
29242;SDS011;21110;48.036;15.780;2023-01-28T05:37:57;21.45;;;13.68;;
29242;SDS011;21110;48.036;15.780;2023-01-28T05:40:23;22.15;;;14.18;;
29242;SDS011;21110;48.036;15.780;2023-01-28T05:42:48;19.02;;;13.82;;
29242;SDS011;21110;48.036;15.780;2023-01-28T05:45:14;21.60;;;14.38;;
29242;SDS011;21110;48.036;15.780;2023-01-28T05:47:40;17.90;;;14.02;;
29242;SDS011;21110;48.036;15.780;2023-01-28T05:50:06;19.33;;;14.15;;
29242;SDS011;21110;48.036;15.780;2023-01-28T05:52:32;19.25;;;14.18;;
29242;SDS011;21110;48.036;15.780;2023-01-28T05:54:57;18.30;;;13.88;;
29242;SDS011;21110;48.036;15.780;2023-01-28T05:57:23;21.05;;;14.93;;
29242;SDS011;21110;48.036;15.780;2023-01-28T05:59:49;19.05;;;13.60;;
29242;SDS011;21110;48.036;15.780;2023-01-28T06:02:14;16.52;;;13.27;;
29242;SDS011;21110;48.036;15.780;2023-01-28T06:04:40;19.73;;;14.27;;
29242;SDS011;21110;48.036;15.780;2023-01-28T06:07:05;17.80;;;13.77;;
29242;SDS011;21110;48.036;15.780;2023-01-28T06:09:31;18.60;;;13.68;;
29242;SDS011;21110;48.036;15.780;2023-01-28T06:11:57;20.48;;;14.32;;
29242;SDS011;21110;48.036;15.780;2023-01-28T06:14:22;16.52;;;13.30;;
29242;SDS011;21110;48.036;15.780;2023-01-28T06:16:48;18.98;;;14.35;;
29242;SDS011;21110;48.036;15.780;2023-01-28T06:19:16;17.63;;;14.00;;
29242;SDS011;21110;48.036;15.780;2023-01-28T06:21:41;17.70;;;14.20;;
29242;SDS011;21110;48.036;15.780;2023-01-28T06:24:07;17.75;;;13.95;;
29242;SDS011;21110;48.036;15.780;2023-01-28T06:26:33;18.27;;;13.98;;
29242;SDS011;21110;48.036;15.780;2023-01-28T06:28:58;17.35;;;13.40;;
29242;SDS011;21110;48.036;15.780;2023-01-28T06:31:24;19.50;;;14.27;;
29242;SDS011;21110;48.036;15.780;2023-01-28T06:33:50;17.92;;;13.75;;
29242;SDS011;21110;48.036;15.780;2023-01-28T06:36:15;19.08;;;13.45;;
29242;SDS011;21110;48.036;15.780;2023-01-28T06:38:41;18.25;;;13.90;;
29242;SDS011;21110;48.036;15.780;2023-01-28T06:41:07;34.60;;;12.65;;
29242;SDS011;21110;48.036;15.780;2023-01-28T06:43:35;22.42;;;12.25;;
29242;SDS011;21110;48.036;15.780;2023-01-28T06:46:01;20.00;;;12.18;;
29242;SDS011;21110;48.036;15.780;2023-01-28T06:48:26;21.75;;;12.43;;
29242;SDS011;21110;48.036;15.780;2023-01-28T06:50:52;19.05;;;11.82;;
29242;SDS011;21110;48.036;15.780;2023-01-28T06:53:18;19.00;;;11.80;;
29242;SDS011;21110;48.036;15.780;2023-01-28T06:55:45;18.60;;;10.90;;
29242;SDS011;21110;48.036;15.780;2023-01-28T06:58:11;19.23;;;12.02;;
29242;SDS011;21110;48.036;15.780;2023-01-28T07:00:36;14.65;;;10.65;;
29242;SDS011;21110;48.036;15.780;2023-01-28T07:03:02;15.65;;;10.95;;
29242;SDS011;21110;48.036;15.780;2023-01-28T07:05:29;13.77;;;10.15;;
29242;SDS011;21110;48.036;15.780;2023-01-28T07:07:55;16.23;;;10.93;;
29242;SDS011;21110;48.036;15.780;2023-01-28T07:10:20;14.45;;;10.18;;
29242;SDS011;21110;48.036;15.780;2023-01-28T07:12:46;11.48;;;9.07;;
29242;SDS011;21110;48.036;15.780;2023-01-28T07:15:12;13.77;;;8.98;;
29242;SDS011;21110;48.036;15.780;2023-01-28T07:17:41;17.65;;;9.52;;
29242;SDS011;21110;48.036;15.780;2023-01-28T07:20:09;18.42;;;9.27;;
29242;SDS011;21110;48.036;15.780;2023-01-28T07:22:37;14.30;;;9.20;;
29242;SDS011;21110;48.036;15.780;2023-01-28T07:25:05;15.13;;;8.57;;
29242;SDS011;21110;48.036;15.780;2023-01-28T07:27:31;14.07;;;8.93;;
29242;SDS011;21110;48.036;15.780;2023-01-28T07:29:56;15.38;;;8.18;;
29242;SDS011;21110;48.036;15.780;2023-01-28T07:32:22;13.75;;;8.73;;
29242;SDS011;21110;48.036;15.780;2023-01-28T07:34:50;16.60;;;8.57;;
29242;SDS011;21110;48.036;15.780;2023-01-28T07:37:16;11.52;;;8.60;;
29242;SDS011;21110;48.036;15.780;2023-01-28T07:39:42;12.27;;;8.50;;
29242;SDS011;21110;48.036;15.780;2023-01-28T07:42:07;11.90;;;8.57;;
29242;SDS011;21110;48.036;15.780;2023-01-28T07:44:33;12.02;;;8.32;;
29242;SDS011;21110;48.036;15.780;2023-01-28T07:47:01;12.30;;;8.88;;
29242;SDS011;21110;48.036;15.780;2023-01-28T07:49:27;12.52;;;8.45;;
29242;SDS011;21110;48.036;15.780;2023-01-28T07:51:53;14.20;;;8.00;;
29242;SDS011;21110;48.036;15.780;2023-01-28T07:54:19;14.60;;;8.52;;
29242;SDS011;21110;48.036;15.780;2023-01-28T07:56:44;10.73;;;7.82;;
29242;SDS011;21110;48.036;15.780;2023-01-28T07:59:10;12.68;;;7.82;;
29242;SDS011;21110;48.036;15.780;2023-01-28T08:01:36;11.25;;;8.13;;
29242;SDS011;21110;48.036;15.780;2023-01-28T08:04:02;10.30;;;7.63;;
29242;SDS011;21110;48.036;15.780;2023-01-28T08:06:28;14.13;;;8.27;;
29242;SDS011;21110;48.036;15.780;2023-01-28T08:08:54;12.85;;;8.32;;
29242;SDS011;21110;48.036;15.780;2023-01-28T08:11:19;10.68;;;7.70;;
29242;SDS011;21110;48.036;15.780;2023-01-28T08:13:45;10.18;;;7.57;;
29242;SDS011;21110;48.036;15.780;2023-01-28T08:16:12;11.32;;;7.85;;
29242;SDS011;21110;48.036;15.780;2023-01-28T08:18:38;11.63;;;7.82;;
29242;SDS011;21110;48.036;15.780;2023-01-28T08:21:04;10.15;;;8.60;;
29242;SDS011;21110;48.036;15.780;2023-01-28T08:23:29;11.57;;;7.60;;
29242;SDS011;21110;48.036;15.780;2023-01-28T08:25:58;9.80;;;7.95;;
29242;SDS011;21110;48.036;15.780;2023-01-28T08:28:24;22.20;;;8.10;;
29242;SDS011;21110;48.036;15.780;2023-01-28T08:30:49;11.93;;;7.88;;
29242;SDS011;21110;48.036;15.780;2023-01-28T08:33:16;16.58;;;8.05;;
29242;SDS011;21110;48.036;15.780;2023-01-28T08:35:42;9.80;;;7.70;;
29242;SDS011;21110;48.036;15.780;2023-01-28T08:38:09;12.15;;;8.18;;
29242;SDS011;21110;48.036;15.780;2023-01-28T08:40:35;11.23;;;7.75;;
29242;SDS011;21110;48.036;15.780;2023-01-28T08:43:01;10.25;;;7.75;;
29242;SDS011;21110;48.036;15.780;2023-01-28T08:45:27;12.68;;;8.20;;
29242;SDS011;21110;48.036;15.780;2023-01-28T08:47:58;12.15;;;7.85;;
29242;SDS011;21110;48.036;15.780;2023-01-28T08:50:24;10.95;;;7.95;;
29242;SDS011;21110;48.036;15.780;2023-01-28T08:52:55;10.23;;;7.80;;
29242;SDS011;21110;48.036;15.780;2023-01-28T08:55:21;11.10;;;7.80;;
29242;SDS011;21110;48.036;15.780;2023-01-28T08:57:47;11.77;;;7.82;;
29242;SDS011;21110;48.036;15.780;2023-01-28T09:00:13;10.07;;;7.55;;
29242;SDS011;21110;48.036;15.780;2023-01-28T09:02:39;24.58;;;8.07;;
29242;SDS011;21110;48.036;15.780;2023-01-28T09:05:05;19.58;;;8.25;;
29242;SDS011;21110;48.036;15.780;2023-01-28T09:07:35;17.08;;;7.75;;
29242;SDS011;21110;48.036;15.780;2023-01-28T09:10:02;15.52;;;7.57;;
29242;SDS011;21110;48.036;15.780;2023-01-28T09:12:28;11.98;;;7.53;;
29242;SDS011;21110;48.036;15.780;2023-01-28T09:14:54;14.50;;;7.10;;
29242;SDS011;21110;48.036;15.780;2023-01-28T09:17:20;19.00;;;7.88;;
29242;SDS011;21110;48.036;15.780;2023-01-28T09:19:46;12.77;;;7.90;;
29242;SDS011;21110;48.036;15.780;2023-01-28T09:22:12;15.57;;;7.45;;
29242;SDS011;21110;48.036;15.780;2023-01-28T09:24:38;16.52;;;7.75;;
29242;SDS011;21110;48.036;15.780;2023-01-28T09:27:03;16.80;;;7.53;;
29242;SDS011;21110;48.036;15.780;2023-01-28T09:29:29;17.15;;;7.65;;
29242;SDS011;21110;48.036;15.780;2023-01-28T09:31:55;23.63;;;7.45;;
29242;SDS011;21110;48.036;15.780;2023-01-28T09:34:20;17.15;;;7.85;;
29242;SDS011;21110;48.036;15.780;2023-01-28T09:36:46;15.32;;;8.25;;
29242;SDS011;21110;48.036;15.780;2023-01-28T09:39:11;15.80;;;7.70;;
29242;SDS011;21110;48.036;15.780;2023-01-28T09:50:01;14.80;;;7.57;;
29242;SDS011;21110;48.036;15.780;2023-01-28T09:52:33;11.00;;;7.28;;
29242;SDS011;21110;48.036;15.780;2023-01-28T09:57:30;11.10;;;7.25;;
29242;SDS011;21110;48.036;15.780;2023-01-28T10:00:17;14.05;;;6.63;;
29242;SDS011;21110;48.036;15.780;2023-01-28T10:10:49;12.50;;;6.90;;
29242;SDS011;21110;48.036;15.780;2023-01-28T10:16:28;15.43;;;7.03;;
29242;SDS011;21110;48.036;15.780;2023-01-28T10:19:06;10.27;;;7.35;;
29242;SDS011;21110;48.036;15.780;2023-01-28T10:21:47;24.60;;;6.97;;
29242;SDS011;21110;48.036;15.780;2023-01-28T10:24:24;18.13;;;7.78;;
29242;SDS011;21110;48.036;15.780;2023-01-28T10:26:52;15.77;;;7.18;;
29242;SDS011;21110;48.036;15.780;2023-01-28T10:29:19;27.95;;;7.20;;
29242;SDS011;21110;48.036;15.780;2023-01-28T10:31:54;29.33;;;7.57;;
29242;SDS011;21110;48.036;15.780;2023-01-28T10:34:23;22.90;;;7.80;;
29242;SDS011;21110;48.036;15.780;2023-01-28T10:36:50;25.08;;;7.10;;
29242;SDS011;21110;48.036;15.780;2023-01-28T10:39:17;16.42;;;6.80;;
29242;SDS011;21110;48.036;15.780;2023-01-28T10:41:46;24.52;;;6.78;;
29242;SDS011;21110;48.036;15.780;2023-01-28T10:44:26;24.50;;;7.13;;
29242;SDS011;21110;48.036;15.780;2023-01-28T10:46:53;26.90;;;6.72;;
29242;SDS011;21110;48.036;15.780;2023-01-28T10:49:25;17.60;;;6.80;;
29242;SDS011;21110;48.036;15.780;2023-01-28T10:51:53;16.80;;;6.80;;
29242;SDS011;21110;48.036;15.780;2023-01-28T10:54:20;16.80;;;6.40;;
29242;SDS011;21110;48.036;15.780;2023-01-28T10:56:46;14.88;;;6.70;;
29242;SDS011;21110;48.036;15.780;2023-01-28T11:01:52;10.85;;;6.32;;
29242;SDS011;21110;48.036;15.780;2023-01-28T11:04:29;13.45;;;6.60;;
29242;SDS011;21110;48.036;15.780;2023-01-28T11:06:57;12.73;;;6.60;;
29242;SDS011;21110;48.036;15.780;2023-01-28T11:09:30;15.32;;;6.55;;
29242;SDS011;21110;48.036;15.780;2023-01-28T11:12:10;11.77;;;6.55;;
29242;SDS011;21110;48.036;15.780;2023-01-28T11:14:49;18.80;;;6.85;;
29242;SDS011;21110;48.036;15.780;2023-01-28T11:17:27;15.73;;;6.38;;
29242;SDS011;21110;48.036;15.780;2023-01-28T11:19:58;20.23;;;7.18;;
29242;SDS011;21110;48.036;15.780;2023-01-28T11:22:37;25.70;;;6.72;;
29242;SDS011;21110;48.036;15.780;2023-01-28T11:27:53;19.20;;;7.60;;
29242;SDS011;21110;48.036;15.780;2023-01-28T11:30:24;25.15;;;8.10;;
29242;SDS011;21110;48.036;15.780;2023-01-28T11:33:04;21.27;;;7.88;;
29242;SDS011;21110;48.036;15.780;2023-01-28T11:35:32;16.90;;;7.43;;
29242;SDS011;21110;48.036;15.780;2023-01-28T11:37:58;16.98;;;7.68;;
29242;SDS011;21110;48.036;15.780;2023-01-28T11:40:24;20.02;;;7.30;;
29242;SDS011;21110;48.036;15.780;2023-01-28T11:42:51;20.10;;;7.25;;
29242;SDS011;21110;48.036;15.780;2023-01-28T11:45:19;18.60;;;7.30;;
29242;SDS011;21110;48.036;15.780;2023-01-28T11:48:02;16.63;;;7.30;;
29242;SDS011;21110;48.036;15.780;2023-01-28T11:56:11;15.82;;;6.93;;
29242;SDS011;21110;48.036;15.780;2023-01-28T11:58:55;15.85;;;7.00;;
29242;SDS011;21110;48.036;15.780;2023-01-28T12:04:50;10.85;;;6.68;;
29242;SDS011;21110;48.036;15.780;2023-01-28T12:07:40;14.27;;;7.13;;
29242;SDS011;21110;48.036;15.780;2023-01-28T12:13:24;14.88;;;6.82;;
29242;SDS011;21110;48.036;15.780;2023-01-28T12:21:27;10.57;;;6.95;;
29242;SDS011;21110;48.036;15.780;2023-01-28T12:24:05;12.43;;;7.00;;
29242;SDS011;21110;48.036;15.780;2023-01-28T12:26:58;12.25;;;7.40;;
29242;SDS011;21110;48.036;15.780;2023-01-28T12:41:53;10.30;;;6.72;;
29242;SDS011;21110;48.036;15.780;2023-01-28T12:44:04;9.45;;;6.57;;
29242;SDS011;21110;48.036;15.780;2023-01-28T12:46:40;10.23;;;7.20;;
29242;SDS011;21110;48.036;15.780;2023-01-28T12:54:11;9.57;;;6.05;;
29242;SDS011;21110;48.036;15.780;2023-01-28T12:56:48;11.43;;;6.80;;
29242;SDS011;21110;48.036;15.780;2023-01-28T12:59:35;9.32;;;6.97;;
29242;SDS011;21110;48.036;15.780;2023-01-28T13:08:09;9.75;;;6.65;;
29242;SDS011;21110;48.036;15.780;2023-01-28T13:13:00;8.15;;;6.32;;
29242;SDS011;21110;48.036;15.780;2023-01-28T13:15:28;8.48;;;6.63;;
29242;SDS011;21110;48.036;15.780;2023-01-28T13:17:59;27.52;;;7.85;;
29242;SDS011;21110;48.036;15.780;2023-01-28T13:23:03;21.27;;;7.07;;
29242;SDS011;21110;48.036;15.780;2023-01-28T13:25:47;18.02;;;7.13;;
29242;SDS011;21110;48.036;15.780;2023-01-28T13:28:24;17.65;;;6.95;;
29242;SDS011;21110;48.036;15.780;2023-01-28T13:30:58;21.33;;;6.80;;
29242;SDS011;21110;48.036;15.780;2023-01-28T13:33:36;14.30;;;6.73;;
29242;SDS011;21110;48.036;15.780;2023-01-28T13:39:38;16.25;;;7.07;;
29242;SDS011;21110;48.036;15.780;2023-01-28T13:46:43;11.57;;;6.45;;
29242;SDS011;21110;48.036;15.780;2023-01-28T13:49:09;13.43;;;6.50;;
29242;SDS011;21110;48.036;15.780;2023-01-28T13:54:39;13.95;;;6.07;;
29242;SDS011;21110;48.036;15.780;2023-01-28T14:16:57;9.15;;;5.57;;
29242;SDS011;21110;48.036;15.780;2023-01-28T14:19:28;8.82;;;5.97;;
29242;SDS011;21110;48.036;15.780;2023-01-28T14:21:57;7.53;;;5.65;;
29242;SDS011;21110;48.036;15.780;2023-01-28T14:24:23;8.68;;;5.90;;
29242;SDS011;21110;48.036;15.780;2023-01-28T14:34:35;9.25;;;5.18;;
29242;SDS011;21110;48.036;15.780;2023-01-28T14:37:08;9.27;;;5.50;;
29242;SDS011;21110;48.036;15.780;2023-01-28T14:39:52;7.18;;;5.53;;
29242;SDS011;21110;48.036;15.780;2023-01-28T14:45:00;9.23;;;5.65;;
29242;SDS011;21110;48.036;15.780;2023-01-28T14:58:11;7.93;;;5.43;;
29242;SDS011;21110;48.036;15.780;2023-01-28T15:00:51;6.05;;;5.15;;
29242;SDS011;21110;48.036;15.780;2023-01-28T15:03:18;6.10;;;5.28;;
29242;SDS011;21110;48.036;15.780;2023-01-28T15:05:44;6.80;;;5.20;;
29242;SDS011;21110;48.036;15.780;2023-01-28T15:08:20;6.85;;;5.38;;
29242;SDS011;21110;48.036;15.780;2023-01-28T15:10:46;8.07;;;5.50;;
29242;SDS011;21110;48.036;15.780;2023-01-28T15:13:24;5.80;;;5.20;;
29242;SDS011;21110;48.036;15.780;2023-01-28T15:15:53;6.88;;;5.35;;
29242;SDS011;21110;48.036;15.780;2023-01-28T15:18:34;5.85;;;5.18;;
29242;SDS011;21110;48.036;15.780;2023-01-28T15:21:09;6.20;;;5.30;;
29242;SDS011;21110;48.036;15.780;2023-01-28T15:23:39;7.15;;;5.32;;
29242;SDS011;21110;48.036;15.780;2023-01-28T15:28:36;6.85;;;5.15;;
29242;SDS011;21110;48.036;15.780;2023-01-28T15:31:03;7.80;;;5.18;;
29242;SDS011;21110;48.036;15.780;2023-01-28T15:33:29;7.72;;;5.32;;
29242;SDS011;21110;48.036;15.780;2023-01-28T15:35:55;8.43;;;5.40;;
29242;SDS011;21110;48.036;15.780;2023-01-28T15:38:22;6.03;;;5.20;;
29242;SDS011;21110;48.036;15.780;2023-01-28T15:40:55;5.78;;;4.93;;
29242;SDS011;21110;48.036;15.780;2023-01-28T15:43:26;7.80;;;4.80;;
29242;SDS011;21110;48.036;15.780;2023-01-28T15:45:55;5.82;;;5.05;;
29242;SDS011;21110;48.036;15.780;2023-01-28T15:48:29;5.57;;;4.88;;
29242;SDS011;21110;48.036;15.780;2023-01-28T15:50:58;5.35;;;4.60;;
29242;SDS011;21110;48.036;15.780;2023-01-28T15:53:26;6.90;;;5.05;;
29242;SDS011;21110;48.036;15.780;2023-01-28T15:56:03;6.43;;;5.00;;
29242;SDS011;21110;48.036;15.780;2023-01-28T15:58:32;6.68;;;4.70;;
29242;SDS011;21110;48.036;15.780;2023-01-28T16:03:33;6.47;;;4.80;;
29242;SDS011;21110;48.036;15.780;2023-01-28T16:06:04;7.07;;;4.45;;
29242;SDS011;21110;48.036;15.780;2023-01-28T16:08:36;5.63;;;5.00;;
29242;SDS011;21110;48.036;15.780;2023-01-28T16:11:05;5.75;;;4.95;;
29242;SDS011;21110;48.036;15.780;2023-01-28T16:13:33;6.25;;;5.00;;
29242;SDS011;21110;48.036;15.780;2023-01-28T16:16:00;5.88;;;5.13;;
29242;SDS011;21110;48.036;15.780;2023-01-28T16:18:29;5.88;;;5.00;;
29242;SDS011;21110;48.036;15.780;2023-01-28T16:20:59;5.40;;;4.90;;
29242;SDS011;21110;48.036;15.780;2023-01-28T16:23:26;5.43;;;4.93;;
29242;SDS011;21110;48.036;15.780;2023-01-28T16:26:02;5.97;;;5.38;;
29242;SDS011;21110;48.036;15.780;2023-01-28T16:28:30;5.63;;;5.03;;
29242;SDS011;21110;48.036;15.780;2023-01-28T16:30:57;5.38;;;4.88;;
29242;SDS011;21110;48.036;15.780;2023-01-28T16:33:23;5.13;;;4.60;;
29242;SDS011;21110;48.036;15.780;2023-01-28T16:35:49;5.82;;;5.22;;
29242;SDS011;21110;48.036;15.780;2023-01-28T16:38:16;5.53;;;4.65;;
29242;SDS011;21110;48.036;15.780;2023-01-28T16:40:42;5.00;;;4.50;;
29242;SDS011;21110;48.036;15.780;2023-01-28T16:43:09;5.35;;;4.85;;
29242;SDS011;21110;48.036;15.780;2023-01-28T16:45:39;5.13;;;4.50;;
29242;SDS011;21110;48.036;15.780;2023-01-28T16:48:06;5.07;;;4.57;;
29242;SDS011;21110;48.036;15.780;2023-01-28T16:50:32;6.00;;;4.90;;
29242;SDS011;21110;48.036;15.780;2023-01-28T16:52:59;5.05;;;4.47;;
29242;SDS011;21110;48.036;15.780;2023-01-28T16:55:25;5.10;;;4.68;;
29242;SDS011;21110;48.036;15.780;2023-01-28T16:57:54;5.00;;;4.50;;
29242;SDS011;21110;48.036;15.780;2023-01-28T17:00:22;4.97;;;4.50;;
29242;SDS011;21110;48.036;15.780;2023-01-28T17:02:49;6.10;;;4.45;;
29242;SDS011;21110;48.036;15.780;2023-01-28T17:05:16;5.28;;;4.78;;
29242;SDS011;21110;48.036;15.780;2023-01-28T17:07:42;4.68;;;4.22;;
29242;SDS011;21110;48.036;15.780;2023-01-28T17:10:08;5.22;;;4.72;;
29242;SDS011;21110;48.036;15.780;2023-01-28T17:12:34;5.50;;;4.53;;
29242;SDS011;21110;48.036;15.780;2023-01-28T17:15:00;6.40;;;4.57;;
29242;SDS011;21110;48.036;15.780;2023-01-28T17:17:27;5.20;;;4.70;;